This is the latest recevied weather packets stored in our database for station/object N2ZVN. If no packets are shown the sender has not sent any weather packets the latest 1 day(s).
| Time | Temp. | Humidity | Pressure | Rain* | Wind** | Luminosity | Snow |
|---|---|---|---|---|---|---|---|
| 1778043985 | 8.33° C | 97% | 1010.4 hPa | 3.56 mm | 0.45 m/s, 53° | 0 W/m² | - |
| 1778043682 | 8.89° C | 97% | 1010.3 hPa | 3.05 mm | 0 m/s | 0 W/m² | - |
| 1778043379 | 8.89° C | 97% | 1010.5 hPa | 4.32 mm | 0 m/s | 0 W/m² | - |
| 1778043075 | 8.89° C | 97% | 1010.3 hPa | 1.27 mm | 0.45 m/s, 52° | 0 W/m² | - |
| 1778042773 | 8.89° C | 97% | 1010 hPa | 0 mm | 0 m/s | 0 W/m² | - |
| 1778042470 | 8.89° C | 97% | 1010.4 hPa | 1.78 mm | 0 m/s | 0 W/m² | - |
| 1778042167 | 8.89° C | 97% | 1010.3 hPa | 3.05 mm | 0 m/s | 0 W/m² | - |
| 1778041865 | 8.89° C | 97% | 1010 hPa | 1.27 mm | 0.45 m/s, 37° | 0 W/m² | - |
| 1778041564 | 8.89° C | 97% | 1010.1 hPa | 1.78 mm | 0 m/s | 0 W/m² | - |
| 1778041262 | 8.89° C | 97% | 1009.9 hPa | 1.78 mm | 0.89 m/s, 38° | 0 W/m² | - |
| 1778040960 | 8.89° C | 97% | 1010.1 hPa | 1.27 mm | 0 m/s | 0 W/m² | - |
| 1778040656 | 8.89° C | 97% | 1010 hPa | 1.27 mm | 0.45 m/s, 23° | 0 W/m² | - |
| 1778040354 | 8.89° C | 97% | 1010 hPa | 1.78 mm | 0 m/s | 0 W/m² | - |
| 1778040050 | 8.89° C | 97% | 1010 hPa | 1.78 mm | 0 m/s | 0 W/m² | - |
| 1778039747 | 8.89° C | 97% | 1010 hPa | 1.27 mm | 0 m/s | 0 W/m² | - |
| 1778039444 | 8.89° C | 97% | 1010.1 hPa | 3.05 mm | 0.45 m/s, 20° | 0 W/m² | - |
| 1778039146 | 8.89° C | 97% | 1010.2 hPa | 1.78 mm | 0 m/s | 0 W/m² | - |
| 1778038838 | 8.89° C | 97% | 1010.3 hPa | 1.27 mm | 0 m/s | 0 W/m² | - |
| 1778038536 | 8.89° C | 97% | 1010.2 hPa | 3.05 mm | 0.89 m/s, 15° | 0 W/m² | - |
| 1778038232 | 8.89° C | 97% | 1010.3 hPa | 1.78 mm | 0 m/s | 0 W/m² | - |
| 1778037930 | 8.89° C | 97% | 1010.6 hPa | 1.78 mm | 0 m/s | 0 W/m² | - |
| 1778037626 | 8.89° C | 97% | 1010.5 hPa | 3.05 mm | 0 m/s | 0 W/m² | - |
| 1778037324 | 8.89° C | 97% | 1010.6 hPa | 1.27 mm | 0 m/s | 0 W/m² | - |
| 1778037021 | 8.89° C | 97% | 1010.3 hPa | 1.78 mm | 0 m/s | 0 W/m² | - |
| 1778036719 | 8.89° C | 97% | 1010.6 hPa | 1.78 mm | 0 m/s | 0 W/m² | - |
* Rain latest hour (hover to see other rain measurements)
** Current wind speed in m/s (hover to see current wind gust speed)